sensor_id;sensor_type;location;lat;lon;timestamp;P1;durP1;ratioP1;P2;durP2;ratioP2
9240;SDS011;53485;49.326;9.738;2023-02-28T00:01:18;4.27;;;2.60;;
9240;SDS011;53485;49.326;9.738;2023-02-28T00:03:45;4.47;;;2.90;;
9240;SDS011;53485;49.326;9.738;2023-02-28T00:06:11;4.17;;;3.20;;
9240;SDS011;53485;49.326;9.738;2023-02-28T00:08:38;3.00;;;2.70;;
9240;SDS011;53485;49.326;9.738;2023-02-28T00:11:04;4.03;;;3.37;;
9240;SDS011;53485;49.326;9.738;2023-02-28T00:13:30;5.00;;;3.30;;
9240;SDS011;53485;49.326;9.738;2023-02-28T00:15:59;3.40;;;2.80;;
9240;SDS011;53485;49.326;9.738;2023-02-28T00:18:24;4.43;;;3.40;;
9240;SDS011;53485;49.326;9.738;2023-02-28T00:20:51;11.53;;;5.90;;
9240;SDS011;53485;49.326;9.738;2023-02-28T00:23:17;11.17;;;5.40;;
9240;SDS011;53485;49.326;9.738;2023-02-28T00:25:44;9.60;;;4.80;;
9240;SDS011;53485;49.326;9.738;2023-02-28T00:28:11;8.30;;;4.43;;
9240;SDS011;53485;49.326;9.738;2023-02-28T00:30:37;8.93;;;4.73;;
9240;SDS011;53485;49.326;9.738;2023-02-28T00:33:04;7.17;;;3.70;;
9240;SDS011;53485;49.326;9.738;2023-02-28T00:35:31;5.63;;;3.30;;
9240;SDS011;53485;49.326;9.738;2023-02-28T00:37:57;5.50;;;3.07;;
9240;SDS011;53485;49.326;9.738;2023-02-28T00:40:24;5.20;;;3.93;;
9240;SDS011;53485;49.326;9.738;2023-02-28T00:42:51;6.77;;;3.90;;
9240;SDS011;53485;49.326;9.738;2023-02-28T00:45:17;5.23;;;3.73;;
9240;SDS011;53485;49.326;9.738;2023-02-28T00:47:44;10.37;;;6.00;;
9240;SDS011;53485;49.326;9.738;2023-02-28T00:50:10;5.83;;;4.13;;
9240;SDS011;53485;49.326;9.738;2023-02-28T00:52:37;8.40;;;4.47;;
9240;SDS011;53485;49.326;9.738;2023-02-28T00:55:04;6.17;;;4.23;;
9240;SDS011;53485;49.326;9.738;2023-02-28T00:57:30;8.27;;;4.93;;
9240;SDS011;53485;49.326;9.738;2023-02-28T00:59:57;14.20;;;7.07;;
9240;SDS011;53485;49.326;9.738;2023-02-28T01:02:24;12.83;;;4.90;;
9240;SDS011;53485;49.326;9.738;2023-02-28T01:04:50;8.47;;;4.40;;
9240;SDS011;53485;49.326;9.738;2023-02-28T01:07:17;7.70;;;4.07;;
9240;SDS011;53485;49.326;9.738;2023-02-28T01:09:44;6.97;;;4.23;;
9240;SDS011;53485;49.326;9.738;2023-02-28T01:12:10;10.03;;;4.77;;
9240;SDS011;53485;49.326;9.738;2023-02-28T01:14:37;10.27;;;5.30;;
9240;SDS011;53485;49.326;9.738;2023-02-28T01:17:04;7.37;;;3.60;;
9240;SDS011;53485;49.326;9.738;2023-02-28T01:19:30;5.57;;;3.80;;
9240;SDS011;53485;49.326;9.738;2023-02-28T01:21:56;5.63;;;4.33;;
9240;SDS011;53485;49.326;9.738;2023-02-28T01:24:22;6.83;;;3.60;;
9240;SDS011;53485;49.326;9.738;2023-02-28T01:26:49;4.97;;;3.37;;
9240;SDS011;53485;49.326;9.738;2023-02-28T01:29:16;5.87;;;4.17;;
9240;SDS011;53485;49.326;9.738;2023-02-28T01:31:42;5.77;;;4.00;;
9240;SDS011;53485;49.326;9.738;2023-02-28T01:34:09;7.10;;;4.87;;
9240;SDS011;53485;49.326;9.738;2023-02-28T01:36:35;7.53;;;4.33;;
9240;SDS011;53485;49.326;9.738;2023-02-28T01:39:02;4.93;;;4.13;;
9240;SDS011;53485;49.326;9.738;2023-02-28T01:41:29;5.77;;;4.53;;
9240;SDS011;53485;49.326;9.738;2023-02-28T01:43:57;6.93;;;4.17;;
9240;SDS011;53485;49.326;9.738;2023-02-28T01:46:22;5.80;;;3.73;;
9240;SDS011;53485;49.326;9.738;2023-02-28T01:48:53;5.73;;;3.83;;
9240;SDS011;53485;49.326;9.738;2023-02-28T01:51:18;6.37;;;4.47;;
9240;SDS011;53485;49.326;9.738;2023-02-28T01:53:45;8.90;;;4.63;;
9240;SDS011;53485;49.326;9.738;2023-02-28T01:56:10;10.60;;;5.13;;
9240;SDS011;53485;49.326;9.738;2023-02-28T01:58:36;6.13;;;4.07;;
9240;SDS011;53485;49.326;9.738;2023-02-28T02:01:03;5.47;;;4.00;;
9240;SDS011;53485;49.326;9.738;2023-02-28T02:03:30;7.33;;;4.50;;
9240;SDS011;53485;49.326;9.738;2023-02-28T02:05:56;10.13;;;5.17;;
9240;SDS011;53485;49.326;9.738;2023-02-28T02:08:23;9.67;;;5.73;;
9240;SDS011;53485;49.326;9.738;2023-02-28T02:10:50;7.27;;;4.60;;
9240;SDS011;53485;49.326;9.738;2023-02-28T02:16:18;9.43;;;7.00;;
9240;SDS011;53485;49.326;9.738;2023-02-28T02:18:46;7.37;;;5.53;;
9240;SDS011;53485;49.326;9.738;2023-02-28T02:23:57;5.83;;;4.40;;
9240;SDS011;53485;49.326;9.738;2023-02-28T02:28:58;6.13;;;3.90;;
9240;SDS011;53485;49.326;9.738;2023-02-28T02:31:28;6.07;;;3.70;;
9240;SDS011;53485;49.326;9.738;2023-02-28T02:36:24;6.10;;;4.20;;
9240;SDS011;53485;49.326;9.738;2023-02-28T02:38:53;8.97;;;4.60;;
9240;SDS011;53485;49.326;9.738;2023-02-28T02:44:02;7.53;;;4.50;;
9240;SDS011;53485;49.326;9.738;2023-02-28T02:46:32;8.03;;;4.27;;
9240;SDS011;53485;49.326;9.738;2023-02-28T02:48:56;7.30;;;4.60;;
9240;SDS011;53485;49.326;9.738;2023-02-28T02:51:23;8.70;;;4.67;;
9240;SDS011;53485;49.326;9.738;2023-02-28T02:53:51;7.87;;;4.63;;
9240;SDS011;53485;49.326;9.738;2023-02-28T02:56:18;5.60;;;4.10;;
9240;SDS011;53485;49.326;9.738;2023-02-28T02:58:43;8.10;;;4.43;;
9240;SDS011;53485;49.326;9.738;2023-02-28T03:01:11;18.47;;;5.20;;
9240;SDS011;53485;49.326;9.738;2023-02-28T03:03:35;6.07;;;4.57;;
9240;SDS011;53485;49.326;9.738;2023-02-28T03:06:02;6.43;;;4.00;;
9240;SDS011;53485;49.326;9.738;2023-02-28T03:08:29;9.43;;;4.83;;
9240;SDS011;53485;49.326;9.738;2023-02-28T03:10:56;8.00;;;5.03;;
9240;SDS011;53485;49.326;9.738;2023-02-28T03:13:33;6.30;;;4.87;;
9240;SDS011;53485;49.326;9.738;2023-02-28T03:15:58;7.53;;;4.37;;
9240;SDS011;53485;49.326;9.738;2023-02-28T03:18:24;9.07;;;5.03;;
9240;SDS011;53485;49.326;9.738;2023-02-28T03:20:51;6.80;;;4.63;;
9240;SDS011;53485;49.326;9.738;2023-02-28T03:23:17;19.37;;;8.57;;
9240;SDS011;53485;49.326;9.738;2023-02-28T03:25:46;24.20;;;9.60;;
9240;SDS011;53485;49.326;9.738;2023-02-28T03:28:15;24.30;;;10.17;;
9240;SDS011;53485;49.326;9.738;2023-02-28T03:30:45;11.43;;;6.00;;
9240;SDS011;53485;49.326;9.738;2023-02-28T03:33:11;20.97;;;8.30;;
9240;SDS011;53485;49.326;9.738;2023-02-28T03:35:38;16.47;;;6.90;;
9240;SDS011;53485;49.326;9.738;2023-02-28T03:38:07;20.73;;;8.30;;
9240;SDS011;53485;49.326;9.738;2023-02-28T03:40:32;26.43;;;10.30;;
9240;SDS011;53485;49.326;9.738;2023-02-28T03:42:59;33.90;;;13.00;;
9240;SDS011;53485;49.326;9.738;2023-02-28T03:45:25;40.20;;;12.87;;
9240;SDS011;53485;49.326;9.738;2023-02-28T03:47:54;12.20;;;5.33;;
9240;SDS011;53485;49.326;9.738;2023-02-28T03:50:23;14.73;;;6.40;;
9240;SDS011;53485;49.326;9.738;2023-02-28T03:52:53;8.97;;;5.47;;
9240;SDS011;53485;49.326;9.738;2023-02-28T03:55:16;14.97;;;7.40;;
9240;SDS011;53485;49.326;9.738;2023-02-28T03:57:53;9.57;;;5.77;;
9240;SDS011;53485;49.326;9.738;2023-02-28T04:00:21;9.40;;;5.13;;
9240;SDS011;53485;49.326;9.738;2023-02-28T04:02:46;6.83;;;4.60;;
9240;SDS011;53485;49.326;9.738;2023-02-28T04:05:13;9.13;;;4.80;;
9240;SDS011;53485;49.326;9.738;2023-02-28T04:07:40;8.20;;;4.70;;
9240;SDS011;53485;49.326;9.738;2023-02-28T04:10:06;7.67;;;5.63;;
9240;SDS011;53485;49.326;9.738;2023-02-28T04:12:33;8.80;;;5.33;;
9240;SDS011;53485;49.326;9.738;2023-02-28T04:15:00;8.37;;;4.60;;
9240;SDS011;53485;49.326;9.738;2023-02-28T04:17:26;6.63;;;4.50;;
9240;SDS011;53485;49.326;9.738;2023-02-28T04:19:53;8.50;;;4.80;;
9240;SDS011;53485;49.326;9.738;2023-02-28T04:22:19;6.67;;;3.37;;
9240;SDS011;53485;49.326;9.738;2023-02-28T04:24:46;7.30;;;4.40;;
9240;SDS011;53485;49.326;9.738;2023-02-28T04:27:12;10.07;;;4.70;;
9240;SDS011;53485;49.326;9.738;2023-02-28T04:29:39;6.97;;;4.10;;
9240;SDS011;53485;49.326;9.738;2023-02-28T04:32:05;8.00;;;4.03;;
9240;SDS011;53485;49.326;9.738;2023-02-28T04:34:32;14.53;;;4.90;;
9240;SDS011;53485;49.326;9.738;2023-02-28T04:36:59;8.77;;;4.83;;
9240;SDS011;53485;49.326;9.738;2023-02-28T04:39:25;8.60;;;4.50;;
9240;SDS011;53485;49.326;9.738;2023-02-28T04:41:51;8.60;;;4.40;;
9240;SDS011;53485;49.326;9.738;2023-02-28T04:44:18;11.93;;;4.63;;
9240;SDS011;53485;49.326;9.738;2023-02-28T04:46:44;8.77;;;5.07;;
9240;SDS011;53485;49.326;9.738;2023-02-28T04:49:11;9.00;;;5.00;;
9240;SDS011;53485;49.326;9.738;2023-02-28T04:51:37;7.90;;;4.53;;
9240;SDS011;53485;49.326;9.738;2023-02-28T04:54:04;8.13;;;4.20;;
9240;SDS011;53485;49.326;9.738;2023-02-28T04:56:30;6.93;;;4.63;;
9240;SDS011;53485;49.326;9.738;2023-02-28T04:58:57;4.67;;;4.27;;
9240;SDS011;53485;49.326;9.738;2023-02-28T05:01:25;8.70;;;4.83;;
9240;SDS011;53485;49.326;9.738;2023-02-28T05:03:50;8.10;;;4.57;;
9240;SDS011;53485;49.326;9.738;2023-02-28T05:06:17;9.90;;;4.73;;
9240;SDS011;53485;49.326;9.738;2023-02-28T05:08:43;7.27;;;4.77;;
9240;SDS011;53485;49.326;9.738;2023-02-28T05:11:13;7.87;;;5.00;;
9240;SDS011;53485;49.326;9.738;2023-02-28T05:13:36;6.97;;;4.57;;
9240;SDS011;53485;49.326;9.738;2023-02-28T05:16:03;8.20;;;5.10;;
9240;SDS011;53485;49.326;9.738;2023-02-28T05:18:30;8.77;;;4.70;;
9240;SDS011;53485;49.326;9.738;2023-02-28T05:20:57;7.13;;;4.87;;
9240;SDS011;53485;49.326;9.738;2023-02-28T05:23:23;8.43;;;6.37;;
9240;SDS011;53485;49.326;9.738;2023-02-28T05:25:50;10.63;;;7.50;;
9240;SDS011;53485;49.326;9.738;2023-02-28T05:28:16;7.43;;;6.27;;
9240;SDS011;53485;49.326;9.738;2023-02-28T05:30:43;10.23;;;6.20;;
9240;SDS011;53485;49.326;9.738;2023-02-28T05:33:10;7.17;;;4.60;;
9240;SDS011;53485;49.326;9.738;2023-02-28T05:35:37;9.40;;;4.57;;
9240;SDS011;53485;49.326;9.738;2023-02-28T05:38:02;7.83;;;5.27;;
9240;SDS011;53485;49.326;9.738;2023-02-28T05:40:29;8.73;;;5.53;;
9240;SDS011;53485;49.326;9.738;2023-02-28T05:42:56;8.77;;;4.60;;
9240;SDS011;53485;49.326;9.738;2023-02-28T05:45:22;8.17;;;5.40;;
9240;SDS011;53485;49.326;9.738;2023-02-28T05:47:52;6.50;;;5.13;;
9240;SDS011;53485;49.326;9.738;2023-02-28T05:50:15;14.60;;;6.97;;
9240;SDS011;53485;49.326;9.738;2023-02-28T05:52:42;26.10;;;11.00;;
9240;SDS011;53485;49.326;9.738;2023-02-28T05:55:08;12.53;;;7.53;;
9240;SDS011;53485;49.326;9.738;2023-02-28T05:57:35;16.00;;;8.03;;
9240;SDS011;53485;49.326;9.738;2023-02-28T06:00:02;13.00;;;6.43;;
9240;SDS011;53485;49.326;9.738;2023-02-28T06:02:28;18.23;;;7.80;;
9240;SDS011;53485;49.326;9.738;2023-02-28T06:04:55;11.43;;;6.77;;
9240;SDS011;53485;49.326;9.738;2023-02-28T06:07:21;15.57;;;7.93;;
9240;SDS011;53485;49.326;9.738;2023-02-28T06:09:48;14.07;;;7.33;;
9240;SDS011;53485;49.326;9.738;2023-02-28T06:12:14;14.40;;;6.57;;
9240;SDS011;53485;49.326;9.738;2023-02-28T06:14:41;13.03;;;6.73;;
9240;SDS011;53485;49.326;9.738;2023-02-28T06:17:08;27.63;;;11.07;;
9240;SDS011;53485;49.326;9.738;2023-02-28T06:19:34;11.13;;;6.97;;
9240;SDS011;53485;49.326;9.738;2023-02-28T06:22:00;30.33;;;11.20;;
9240;SDS011;53485;49.326;9.738;2023-02-28T06:24:27;13.23;;;6.90;;
9240;SDS011;53485;49.326;9.738;2023-02-28T06:26:54;10.50;;;6.60;;
9240;SDS011;53485;49.326;9.738;2023-02-28T06:29:21;11.33;;;6.40;;
9240;SDS011;53485;49.326;9.738;2023-02-28T06:31:47;10.43;;;6.20;;
9240;SDS011;53485;49.326;9.738;2023-02-28T06:34:13;11.43;;;7.07;;
9240;SDS011;53485;49.326;9.738;2023-02-28T06:36:40;10.97;;;6.43;;
9240;SDS011;53485;49.326;9.738;2023-02-28T06:39:06;8.30;;;5.93;;
9240;SDS011;53485;49.326;9.738;2023-02-28T06:41:32;7.53;;;5.50;;
9240;SDS011;53485;49.326;9.738;2023-02-28T06:43:58;11.33;;;6.43;;
9240;SDS011;53485;49.326;9.738;2023-02-28T06:46:25;10.93;;;6.50;;
9240;SDS011;53485;49.326;9.738;2023-02-28T06:48:51;15.67;;;7.10;;
9240;SDS011;53485;49.326;9.738;2023-02-28T06:51:18;11.77;;;6.00;;
9240;SDS011;53485;49.326;9.738;2023-02-28T06:53:44;10.00;;;5.60;;
9240;SDS011;53485;49.326;9.738;2023-02-28T06:56:12;10.97;;;7.40;;
9240;SDS011;53485;49.326;9.738;2023-02-28T06:58:37;22.13;;;7.57;;
9240;SDS011;53485;49.326;9.738;2023-02-28T07:01:04;11.17;;;6.30;;
9240;SDS011;53485;49.326;9.738;2023-02-28T07:03:30;11.97;;;6.03;;
9240;SDS011;53485;49.326;9.738;2023-02-28T07:05:56;9.97;;;6.10;;
9240;SDS011;53485;49.326;9.738;2023-02-28T07:08:23;9.57;;;5.67;;
9240;SDS011;53485;49.326;9.738;2023-02-28T07:10:52;9.20;;;5.40;;
9240;SDS011;53485;49.326;9.738;2023-02-28T07:13:17;9.73;;;5.77;;
9240;SDS011;53485;49.326;9.738;2023-02-28T07:15:44;8.40;;;5.77;;
9240;SDS011;53485;49.326;9.738;2023-02-28T07:18:10;8.47;;;5.97;;
9240;SDS011;53485;49.326;9.738;2023-02-28T07:20:37;9.37;;;6.23;;
9240;SDS011;53485;49.326;9.738;2023-02-28T07:23:03;7.30;;;5.20;;
9240;SDS011;53485;49.326;9.738;2023-02-28T07:25:30;10.40;;;5.73;;
9240;SDS011;53485;49.326;9.738;2023-02-28T07:27:57;7.00;;;5.07;;
9240;SDS011;53485;49.326;9.738;2023-02-28T07:30:23;8.23;;;5.07;;
9240;SDS011;53485;49.326;9.738;2023-02-28T07:32:50;7.80;;;5.40;;
9240;SDS011;53485;49.326;9.738;2023-02-28T07:35:17;6.43;;;4.30;;
9240;SDS011;53485;49.326;9.738;2023-02-28T07:37:43;6.70;;;4.57;;
9240;SDS011;53485;49.326;9.738;2023-02-28T07:40:10;7.20;;;4.50;;
9240;SDS011;53485;49.326;9.738;2023-02-28T07:42:37;8.07;;;5.93;;
9240;SDS011;53485;49.326;9.738;2023-02-28T07:45:04;7.50;;;4.40;;
9240;SDS011;53485;49.326;9.738;2023-02-28T07:47:30;9.53;;;5.10;;
9240;SDS011;53485;49.326;9.738;2023-02-28T07:49:57;6.17;;;4.47;;
9240;SDS011;53485;49.326;9.738;2023-02-28T07:52:23;5.97;;;4.40;;
9240;SDS011;53485;49.326;9.738;2023-02-28T07:54:49;6.27;;;4.17;;
9240;SDS011;53485;49.326;9.738;2023-02-28T07:57:15;11.27;;;6.03;;
9240;SDS011;53485;49.326;9.738;2023-02-28T07:59:41;8.03;;;4.47;;
9240;SDS011;53485;49.326;9.738;2023-02-28T08:02:12;6.23;;;4.70;;
9240;SDS011;53485;49.326;9.738;2023-02-28T08:04:37;6.87;;;4.27;;
9240;SDS011;53485;49.326;9.738;2023-02-28T08:07:03;9.33;;;5.00;;
9240;SDS011;53485;49.326;9.738;2023-02-28T08:09:30;10.07;;;4.90;;
9240;SDS011;53485;49.326;9.738;2023-02-28T08:11:57;6.80;;;4.50;;
9240;SDS011;53485;49.326;9.738;2023-02-28T08:14:23;8.93;;;5.47;;
9240;SDS011;53485;49.326;9.738;2023-02-28T08:16:50;7.13;;;4.63;;
9240;SDS011;53485;49.326;9.738;2023-02-28T08:19:17;9.27;;;4.67;;
9240;SDS011;53485;49.326;9.738;2023-02-28T08:21:43;6.10;;;4.80;;
9240;SDS011;53485;49.326;9.738;2023-02-28T08:24:09;6.60;;;4.63;;
9240;SDS011;53485;49.326;9.738;2023-02-28T08:26:36;5.77;;;4.33;;
9240;SDS011;53485;49.326;9.738;2023-02-28T08:29:03;7.37;;;4.93;;
9240;SDS011;53485;49.326;9.738;2023-02-28T08:31:29;6.27;;;4.43;;
9240;SDS011;53485;49.326;9.738;2023-02-28T08:33:56;7.40;;;5.30;;
9240;SDS011;53485;49.326;9.738;2023-02-28T08:36:22;6.10;;;5.33;;
9240;SDS011;53485;49.326;9.738;2023-02-28T08:38:49;8.43;;;7.03;;
9240;SDS011;53485;49.326;9.738;2023-02-28T08:41:15;9.17;;;6.20;;
9240;SDS011;53485;49.326;9.738;2023-02-28T08:43:42;9.10;;;5.53;;
9240;SDS011;53485;49.326;9.738;2023-02-28T08:46:11;7.07;;;5.63;;
9240;SDS011;53485;49.326;9.738;2023-02-28T08:48:35;8.73;;;5.67;;
9240;SDS011;53485;49.326;9.738;2023-02-28T08:51:03;6.90;;;5.23;;
9240;SDS011;53485;49.326;9.738;2023-02-28T08:53:27;6.50;;;5.17;;
9240;SDS011;53485;49.326;9.738;2023-02-28T08:55:56;9.17;;;5.50;;
9240;SDS011;53485;49.326;9.738;2023-02-28T08:58:22;11.43;;;6.40;;
9240;SDS011;53485;49.326;9.738;2023-02-28T09:00:48;7.90;;;5.23;;
9240;SDS011;53485;49.326;9.738;2023-02-28T09:03:15;6.30;;;5.37;;
9240;SDS011;53485;49.326;9.738;2023-02-28T09:05:41;6.27;;;5.63;;
9240;SDS011;53485;49.326;9.738;2023-02-28T09:08:08;6.73;;;5.33;;
9240;SDS011;53485;49.326;9.738;2023-02-28T09:10:34;9.20;;;5.70;;
9240;SDS011;53485;49.326;9.738;2023-02-28T09:13:01;8.10;;;5.47;;
9240;SDS011;53485;49.326;9.738;2023-02-28T09:15:28;9.50;;;5.50;;
9240;SDS011;53485;49.326;9.738;2023-02-28T09:17:54;12.53;;;6.60;;
9240;SDS011;53485;49.326;9.738;2023-02-28T09:20:21;7.13;;;5.50;;
9240;SDS011;53485;49.326;9.738;2023-02-28T09:22:48;7.37;;;5.87;;
9240;SDS011;53485;49.326;9.738;2023-02-28T09:25:14;11.37;;;6.30;;
9240;SDS011;53485;49.326;9.738;2023-02-28T09:27:41;8.67;;;5.73;;
9240;SDS011;53485;49.326;9.738;2023-02-28T09:30:08;7.60;;;5.77;;
9240;SDS011;53485;49.326;9.738;2023-02-28T09:32:35;7.50;;;5.77;;
9240;SDS011;53485;49.326;9.738;2023-02-28T09:35:01;7.17;;;5.70;;
9240;SDS011;53485;49.326;9.738;2023-02-28T09:37:28;9.70;;;5.93;;
9240;SDS011;53485;49.326;9.738;2023-02-28T09:39:54;7.50;;;5.63;;
9240;SDS011;53485;49.326;9.738;2023-02-28T09:42:22;10.70;;;6.80;;
9240;SDS011;53485;49.326;9.738;2023-02-28T09:44:47;8.17;;;5.97;;
9240;SDS011;53485;49.326;9.738;2023-02-28T09:47:21;10.07;;;6.87;;
9240;SDS011;53485;49.326;9.738;2023-02-28T09:49:44;8.57;;;5.70;;
9240;SDS011;53485;49.326;9.738;2023-02-28T09:52:11;7.20;;;6.23;;
9240;SDS011;53485;49.326;9.738;2023-02-28T09:54:36;8.83;;;6.20;;
9240;SDS011;53485;49.326;9.738;2023-02-28T09:57:14;8.50;;;6.20;;
9240;SDS011;53485;49.326;9.738;2023-02-28T09:59:44;10.87;;;6.40;;
9240;SDS011;53485;49.326;9.738;2023-02-28T10:02:17;7.77;;;6.33;;
9240;SDS011;53485;49.326;9.738;2023-02-28T10:04:50;8.03;;;6.40;;
9240;SDS011;53485;49.326;9.738;2023-02-28T10:07:29;7.60;;;6.10;;
9240;SDS011;53485;49.326;9.738;2023-02-28T10:09:53;8.33;;;6.73;;
9240;SDS011;53485;49.326;9.738;2023-02-28T10:12:18;9.57;;;7.10;;
9240;SDS011;53485;49.326;9.738;2023-02-28T10:14:45;8.60;;;7.00;;
9240;SDS011;53485;49.326;9.738;2023-02-28T10:17:12;10.80;;;7.37;;
9240;SDS011;53485;49.326;9.738;2023-02-28T10:19:55;9.80;;;7.37;;
9240;SDS011;53485;49.326;9.738;2023-02-28T10:22:11;8.20;;;5.90;;
9240;SDS011;53485;49.326;9.738;2023-02-28T10:24:37;8.77;;;7.03;;
9240;SDS011;53485;49.326;9.738;2023-02-28T10:27:06;8.20;;;7.07;;
9240;SDS011;53485;49.326;9.738;2023-02-28T10:29:28;9.50;;;7.47;;
9240;SDS011;53485;49.326;9.738;2023-02-28T10:31:54;9.13;;;7.63;;
9240;SDS011;53485;49.326;9.738;2023-02-28T10:34:20;9.47;;;6.77;;
9240;SDS011;53485;49.326;9.738;2023-02-28T10:36:47;9.63;;;7.27;;
9240;SDS011;53485;49.326;9.738;2023-02-28T10:41:45;10.53;;;7.00;;
9240;SDS011;53485;49.326;9.738;2023-02-28T10:44:13;10.37;;;7.40;;
9240;SDS011;53485;49.326;9.738;2023-02-28T10:46:39;10.10;;;7.43;;
9240;SDS011;53485;49.326;9.738;2023-02-28T10:49:05;11.43;;;7.70;;
9240;SDS011;53485;49.326;9.738;2023-02-28T10:51:34;11.67;;;8.97;;
9240;SDS011;53485;49.326;9.738;2023-02-28T10:53:59;13.20;;;7.77;;
9240;SDS011;53485;49.326;9.738;2023-02-28T10:56:26;9.87;;;7.10;;
9240;SDS011;53485;49.326;9.738;2023-02-28T10:58:56;9.47;;;7.80;;
9240;SDS011;53485;49.326;9.738;2023-02-28T11:01:36;9.60;;;7.20;;
9240;SDS011;53485;49.326;9.738;2023-02-28T11:04:02;11.10;;;8.20;;
9240;SDS011;53485;49.326;9.738;2023-02-28T11:06:29;9.10;;;7.13;;
9240;SDS011;53485;49.326;9.738;2023-02-28T11:08:55;11.27;;;7.90;;
9240;SDS011;53485;49.326;9.738;2023-02-28T11:11:22;9.53;;;7.30;;
9240;SDS011;53485;49.326;9.738;2023-02-28T11:13:47;10.90;;;8.13;;
9240;SDS011;53485;49.326;9.738;2023-02-28T11:16:13;10.73;;;7.63;;
9240;SDS011;53485;49.326;9.738;2023-02-28T11:18:42;10.03;;;7.30;;
9240;SDS011;53485;49.326;9.738;2023-02-28T11:21:07;8.80;;;7.87;;
9240;SDS011;53485;49.326;9.738;2023-02-28T11:23:34;9.23;;;7.97;;
9240;SDS011;53485;49.326;9.738;2023-02-28T11:26:01;13.90;;;7.83;;
9240;SDS011;53485;49.326;9.738;2023-02-28T11:28:30;8.77;;;7.57;;
9240;SDS011;53485;49.326;9.738;2023-02-28T11:31:01;14.70;;;8.00;;
9240;SDS011;53485;49.326;9.738;2023-02-28T11:33:28;10.10;;;7.37;;
9240;SDS011;53485;49.326;9.738;2023-02-28T11:35:53;11.10;;;7.97;;
9240;SDS011;53485;49.326;9.738;2023-02-28T11:38:20;9.70;;;7.70;;
9240;SDS011;53485;49.326;9.738;2023-02-28T11:40:49;8.93;;;7.40;;
9240;SDS011;53485;49.326;9.738;2023-02-28T11:45:49;9.70;;;7.57;;
9240;SDS011;53485;49.326;9.738;2023-02-28T11:48:16;8.87;;;7.20;;
9240;SDS011;53485;49.326;9.738;2023-02-28T11:50:42;12.17;;;7.77;;
9240;SDS011;53485;49.326;9.738;2023-02-28T11:53:11;11.63;;;7.57;;
9240;SDS011;53485;49.326;9.738;2023-02-28T11:55:42;8.40;;;6.93;;
9240;SDS011;53485;49.326;9.738;2023-02-28T11:58:17;8.37;;;7.20;;
9240;SDS011;53485;49.326;9.738;2023-02-28T12:00:44;7.97;;;7.10;;
9240;SDS011;53485;49.326;9.738;2023-02-28T12:04:15;9.77;;;6.90;;
9240;SDS011;53485;49.326;9.738;2023-02-28T12:05:52;9.13;;;7.50;;
9240;SDS011;53485;49.326;9.738;2023-02-28T12:08:21;8.97;;;7.70;;
9240;SDS011;53485;49.326;9.738;2023-02-28T12:10:44;8.73;;;7.23;;
9240;SDS011;53485;49.326;9.738;2023-02-28T12:13:12;9.20;;;7.90;;
9240;SDS011;53485;49.326;9.738;2023-02-28T12:18:11;9.40;;;7.57;;
9240;SDS011;53485;49.326;9.738;2023-02-28T12:20:38;9.60;;;7.47;;
9240;SDS011;53485;49.326;9.738;2023-02-28T12:25:47;9.13;;;7.47;;
9240;SDS011;53485;49.326;9.738;2023-02-28T12:28:13;10.53;;;7.73;;
9240;SDS011;53485;49.326;9.738;2023-02-28T12:30:41;9.97;;;7.87;;
9240;SDS011;53485;49.326;9.738;2023-02-28T12:33:09;9.83;;;8.33;;
9240;SDS011;53485;49.326;9.738;2023-02-28T12:35:37;9.63;;;7.70;;
9240;SDS011;53485;49.326;9.738;2023-02-28T12:38:04;11.13;;;7.93;;
9240;SDS011;53485;49.326;9.738;2023-02-28T12:40:44;8.50;;;7.10;;
9240;SDS011;53485;49.326;9.738;2023-02-28T12:43:09;10.70;;;8.10;;
9240;SDS011;53485;49.326;9.738;2023-02-28T12:45:40;13.77;;;8.73;;
9240;SDS011;53485;49.326;9.738;2023-02-28T12:48:06;13.53;;;8.17;;
9240;SDS011;53485;49.326;9.738;2023-02-28T12:50:32;11.30;;;8.13;;
9240;SDS011;53485;49.326;9.738;2023-02-28T12:53:00;11.47;;;8.63;;
9240;SDS011;53485;49.326;9.738;2023-02-28T12:55:29;16.47;;;10.07;;
9240;SDS011;53485;49.326;9.738;2023-02-28T12:58:03;12.87;;;8.80;;
9240;SDS011;53485;49.326;9.738;2023-02-28T13:00:32;9.90;;;7.77;;
9240;SDS011;53485;49.326;9.738;2023-02-28T13:03:08;11.53;;;8.53;;
9240;SDS011;53485;49.326;9.738;2023-02-28T13:08:33;11.17;;;7.60;;
9240;SDS011;53485;49.326;9.738;2023-02-28T13:10:56;11.00;;;8.07;;
9240;SDS011;53485;49.326;9.738;2023-02-28T13:13:24;11.13;;;7.87;;
9240;SDS011;53485;49.326;9.738;2023-02-28T13:18:27;10.33;;;7.47;;
9240;SDS011;53485;49.326;9.738;2023-02-28T13:20:48;10.53;;;7.90;;
9240;SDS011;53485;49.326;9.738;2023-02-28T13:23:36;9.17;;;7.50;;
9240;SDS011;53485;49.326;9.738;2023-02-28T13:25:49;10.77;;;7.30;;
9240;SDS011;53485;49.326;9.738;2023-02-28T13:28:56;17.50;;;8.57;;
9240;SDS011;53485;49.326;9.738;2023-02-28T13:35:47;10.57;;;8.13;;
9240;SDS011;53485;49.326;9.738;2023-02-28T13:38:15;10.00;;;8.50;;
9240;SDS011;53485;49.326;9.738;2023-02-28T13:40:40;9.50;;;7.93;;
9240;SDS011;53485;49.326;9.738;2023-02-28T13:43:07;9.67;;;7.90;;
9240;SDS011;53485;49.326;9.738;2023-02-28T13:45:33;9.97;;;8.27;;
9240;SDS011;53485;49.326;9.738;2023-02-28T13:48:00;12.90;;;7.97;;
9240;SDS011;53485;49.326;9.738;2023-02-28T13:50:29;10.10;;;7.40;;
9240;SDS011;53485;49.326;9.738;2023-02-28T13:55:46;14.03;;;7.43;;
9240;SDS011;53485;49.326;9.738;2023-02-28T13:58:21;12.50;;;7.70;;
9240;SDS011;53485;49.326;9.738;2023-02-28T14:01:05;8.57;;;7.20;;
9240;SDS011;53485;49.326;9.738;2023-02-28T14:06:15;10.33;;;6.90;;
9240;SDS011;53485;49.326;9.738;2023-02-28T14:08:36;8.53;;;6.47;;
9240;SDS011;53485;49.326;9.738;2023-02-28T14:11:04;8.43;;;7.27;;
9240;SDS011;53485;49.326;9.738;2023-02-28T14:16:02;8.90;;;7.33;;
9240;SDS011;53485;49.326;9.738;2023-02-28T14:18:32;13.83;;;10.23;;
9240;SDS011;53485;49.326;9.738;2023-02-28T14:21:01;11.67;;;8.73;;
9240;SDS011;53485;49.326;9.738;2023-02-28T14:23:32;9.90;;;8.07;;
9240;SDS011;53485;49.326;9.738;2023-02-28T14:26:02;9.20;;;7.40;;
9240;SDS011;53485;49.326;9.738;2023-02-28T14:31:06;8.57;;;7.43;;
9240;SDS011;53485;49.326;9.738;2023-02-28T14:33:35;8.53;;;7.27;;
9240;SDS011;53485;49.326;9.738;2023-02-28T14:38:41;7.53;;;6.63;;
9240;SDS011;53485;49.326;9.738;2023-02-28T14:41:12;9.03;;;7.33;;
9240;SDS011;53485;49.326;9.738;2023-02-28T14:43:32;7.53;;;6.50;;
9240;SDS011;53485;49.326;9.738;2023-02-28T14:45:59;9.23;;;7.33;;
9240;SDS011;53485;49.326;9.738;2023-02-28T14:48:24;8.83;;;7.07;;
9240;SDS011;53485;49.326;9.738;2023-02-28T14:50:52;11.07;;;7.87;;
9240;SDS011;53485;49.326;9.738;2023-02-28T14:53:18;8.00;;;6.43;;
9240;SDS011;53485;49.326;9.738;2023-02-28T14:55:44;8.63;;;7.17;;
9240;SDS011;53485;49.326;9.738;2023-02-28T14:58:20;7.20;;;6.50;;
9240;SDS011;53485;49.326;9.738;2023-02-28T15:00:46;7.63;;;6.83;;
9240;SDS011;53485;49.326;9.738;2023-02-28T15:03:19;8.73;;;7.00;;
9240;SDS011;53485;49.326;9.738;2023-02-28T15:05:52;8.73;;;7.57;;
9240;SDS011;53485;49.326;9.738;2023-02-28T15:08:20;9.17;;;7.70;;
9240;SDS011;53485;49.326;9.738;2023-02-28T15:10:51;10.50;;;7.20;;
9240;SDS011;53485;49.326;9.738;2023-02-28T15:13:16;7.27;;;6.57;;
9240;SDS011;53485;49.326;9.738;2023-02-28T15:15:45;8.37;;;7.07;;
9240;SDS011;53485;49.326;9.738;2023-02-28T15:18:15;7.47;;;6.67;;
9240;SDS011;53485;49.326;9.738;2023-02-28T15:20:40;8.23;;;7.43;;
9240;SDS011;53485;49.326;9.738;2023-02-28T15:23:06;8.37;;;7.10;;
9240;SDS011;53485;49.326;9.738;2023-02-28T15:25:32;10.27;;;6.90;;
9240;SDS011;53485;49.326;9.738;2023-02-28T15:27:58;8.27;;;7.40;;
9240;SDS011;53485;49.326;9.738;2023-02-28T15:30:28;7.97;;;7.17;;
9240;SDS011;53485;49.326;9.738;2023-02-28T15:35:28;13.73;;;6.83;;
9240;SDS011;53485;49.326;9.738;2023-02-28T15:38:02;8.17;;;7.30;;
9240;SDS011;53485;49.326;9.738;2023-02-28T15:40:36;7.57;;;6.60;;
9240;SDS011;53485;49.326;9.738;2023-02-28T15:43:06;9.53;;;7.60;;
9240;SDS011;53485;49.326;9.738;2023-02-28T15:45:37;8.53;;;7.30;;
9240;SDS011;53485;49.326;9.738;2023-02-28T15:48:02;8.53;;;6.93;;